sensor_id;sensor_type;location;lat;lon;timestamp;pressure;altitude;pressure_sealevel;temperature;humidity
25232;BME280;13176;51.140;6.290;2022-09-25T00:00:46;100725.22;;;17.08;86.53
25232;BME280;13176;51.140;6.290;2022-09-25T00:03:14;100720.03;;;17.07;86.74
25232;BME280;13176;51.140;6.290;2022-09-25T00:05:43;100722.91;;;17.01;86.50
25232;BME280;13176;51.140;6.290;2022-09-25T00:08:11;100723.50;;;17.07;86.27
25232;BME280;13176;51.140;6.290;2022-09-25T00:10:56;100697.47;;;16.77;86.56
25232;BME280;13176;51.140;6.290;2022-09-25T00:13:22;100675.41;;;16.58;86.29
25232;BME280;13176;51.140;6.290;2022-09-25T00:15:54;100721.88;;;16.82;87.01
25232;BME280;13176;51.140;6.290;2022-09-25T00:18:22;100722.00;;;16.79;86.67
25232;BME280;13176;51.140;6.290;2022-09-25T00:21:09;100715.16;;;16.75;86.46
25232;BME280;13176;51.140;6.290;2022-09-25T00:23:38;100728.19;;;16.78;86.16
25232;BME280;13176;51.140;6.290;2022-09-25T00:26:05;100727.25;;;16.79;85.99
25232;BME280;13176;51.140;6.290;2022-09-25T00:28:34;100670.38;;;16.52;86.50
25232;BME280;13176;51.140;6.290;2022-09-25T00:31:02;100712.38;;;16.78;86.27
25232;BME280;13176;51.140;6.290;2022-09-25T00:33:31;100721.88;;;16.82;86.18
25232;BME280;13176;51.140;6.290;2022-09-25T00:36:06;100728.88;;;16.83;86.24
25232;BME280;13176;51.140;6.290;2022-09-25T00:38:34;100618.94;;;16.19;85.30
25232;BME280;13176;51.140;6.290;2022-09-25T00:41:03;100705.06;;;16.63;86.02
25232;BME280;13176;51.140;6.290;2022-09-25T00:43:35;100692.19;;;16.55;86.26
25232;BME280;13176;51.140;6.290;2022-09-25T00:46:08;100615.22;;;16.01;85.82
25232;BME280;13176;51.140;6.290;2022-09-25T00:48:37;100730.31;;;16.68;86.36
25232;BME280;13176;51.140;6.290;2022-09-25T00:51:07;100633.34;;;16.09;85.90
25232;BME280;13176;51.140;6.290;2022-09-25T00:53:37;100656.19;;;16.31;86.02
25232;BME280;13176;51.140;6.290;2022-09-25T00:56:08;100712.41;;;16.55;86.22
25232;BME280;13176;51.140;6.290;2022-09-25T00:58:37;100731.31;;;16.66;86.48
25232;BME280;13176;51.140;6.290;2022-09-25T01:01:06;100726.78;;;16.69;86.02
25232;BME280;13176;51.140;6.290;2022-09-25T01:03:34;100748.00;;;16.88;85.64
25232;BME280;13176;51.140;6.290;2022-09-25T01:06:01;100728.88;;;16.83;85.24
25232;BME280;13176;51.140;6.290;2022-09-25T01:08:30;100719.56;;;16.74;85.72
25232;BME280;13176;51.140;6.290;2022-09-25T01:10:57;100647.00;;;16.20;85.82
25232;BME280;13176;51.140;6.290;2022-09-25T01:13:24;100718.81;;;16.71;85.64
25232;BME280;13176;51.140;6.290;2022-09-25T01:16:03;100660.59;;;16.32;86.00
25232;BME280;13176;51.140;6.290;2022-09-25T01:21:33;100739.09;;;16.69;85.77
25232;BME280;13176;51.140;6.290;2022-09-25T01:32:37;100747.13;;;16.66;86.17
25232;BME280;13176;51.140;6.290;2022-09-25T01:38:06;100760.22;;;16.67;85.80
25232;BME280;13176;51.140;6.290;2022-09-25T01:40:57;100645.81;;;16.04;85.64
25232;BME280;13176;51.140;6.290;2022-09-25T01:43:35;100752.09;;;16.73;86.04
25232;BME280;13176;51.140;6.290;2022-09-25T01:46:14;100753.13;;;16.69;85.81
25232;BME280;13176;51.140;6.290;2022-09-25T01:48:44;100744.63;;;16.61;86.02
25232;BME280;13176;51.140;6.290;2022-09-25T01:51:20;100736.13;;;16.55;85.87
25232;BME280;13176;51.140;6.290;2022-09-25T01:53:58;100699.25;;;16.32;85.87
25232;BME280;13176;51.140;6.290;2022-09-25T01:56:37;100753.66;;;16.56;86.18
25232;BME280;13176;51.140;6.290;2022-09-25T01:59:08;100749.19;;;16.58;85.54
25232;BME280;13176;51.140;6.290;2022-09-25T02:01:39;100728.63;;;16.44;86.03
25232;BME280;13176;51.140;6.290;2022-09-25T02:04:28;100752.84;;;16.54;86.17
25232;BME280;13176;51.140;6.290;2022-09-25T02:07:00;100663.59;;;15.99;85.96
25232;BME280;13176;51.140;6.290;2022-09-25T02:09:50;100744.56;;;16.40;86.32
25232;BME280;13176;51.140;6.290;2022-09-25T02:12:24;100745.91;;;16.51;86.05
25232;BME280;13176;51.140;6.290;2022-09-25T02:14:54;100680.81;;;16.07;86.34
25232;BME280;13176;51.140;6.290;2022-09-25T02:17:30;100764.75;;;16.64;86.04
25232;BME280;13176;51.140;6.290;2022-09-25T02:20:21;100748.06;;;16.63;85.82
25232;BME280;13176;51.140;6.290;2022-09-25T02:23:10;100754.16;;;16.65;85.57
25232;BME280;13176;51.140;6.290;2022-09-25T02:25:45;100756.66;;;16.68;86.00
25232;BME280;13176;51.140;6.290;2022-09-25T02:28:14;100726.72;;;16.48;85.67
25232;BME280;13176;51.140;6.290;2022-09-25T02:30:41;100714.81;;;16.38;86.40
25232;BME280;13176;51.140;6.290;2022-09-25T02:33:09;100751.63;;;16.62;85.89
25232;BME280;13176;51.140;6.290;2022-09-25T02:35:36;100669.41;;;16.07;85.77
25232;BME280;13176;51.140;6.290;2022-09-25T02:38:03;100653.16;;;15.96;85.99
25232;BME280;13176;51.140;6.290;2022-09-25T02:40:40;100758.97;;;16.54;85.96
25232;BME280;13176;51.140;6.290;2022-09-25T02:43:25;100728.03;;;16.36;85.71
25232;BME280;13176;51.140;6.290;2022-09-25T02:46:06;100767.81;;;16.53;85.91
25232;BME280;13176;51.140;6.290;2022-09-25T02:49:15;100759.72;;;16.58;85.91
25232;BME280;13176;51.140;6.290;2022-09-25T02:52:18;100732.09;;;16.45;85.83
25232;BME280;13176;51.140;6.290;2022-09-25T02:55:01;100766.69;;;16.59;86.01
25232;BME280;13176;51.140;6.290;2022-09-25T02:57:40;100760.91;;;16.49;86.12
25232;BME280;13176;51.140;6.290;2022-09-25T03:00:11;100746.19;;;16.44;86.19
25232;BME280;13176;51.140;6.290;2022-09-25T03:02:40;100747.38;;;16.35;86.13
25232;BME280;13176;51.140;6.290;2022-09-25T03:05:10;100756.59;;;16.47;86.34
25232;BME280;13176;51.140;6.290;2022-09-25T03:07:39;100653.59;;;15.84;85.89
25232;BME280;13176;51.140;6.290;2022-09-25T03:10:25;100719.41;;;16.31;85.66
25232;BME280;13176;51.140;6.290;2022-09-25T03:12:53;100744.47;;;16.43;85.79
25232;BME280;13176;51.140;6.290;2022-09-25T03:15:20;100745.13;;;16.25;85.22
25232;BME280;13176;51.140;6.290;2022-09-25T03:17:49;100738.94;;;16.26;85.35
25232;BME280;13176;51.140;6.290;2022-09-25T03:20:17;100766.31;;;16.46;85.25
25232;BME280;13176;51.140;6.290;2022-09-25T03:22:43;100763.16;;;16.37;85.19
25232;BME280;13176;51.140;6.290;2022-09-25T03:25:10;100760.69;;;16.31;84.89
25232;BME280;13176;51.140;6.290;2022-09-25T03:27:36;100753.94;;;16.24;84.94
25232;BME280;13176;51.140;6.290;2022-09-25T03:30:02;100688.50;;;15.89;84.90
25232;BME280;13176;51.140;6.290;2022-09-25T03:32:31;100755.34;;;16.34;84.82
25232;BME280;13176;51.140;6.290;2022-09-25T03:34:57;100758.28;;;16.25;84.37
25232;BME280;13176;51.140;6.290;2022-09-25T03:37:24;100755.66;;;16.25;84.21
25232;BME280;13176;51.140;6.290;2022-09-25T03:39:50;100689.59;;;15.84;83.99
25232;BME280;13176;51.140;6.290;2022-09-25T03:42:16;100743.59;;;16.18;84.13
25232;BME280;13176;51.140;6.290;2022-09-25T03:44:45;100734.28;;;16.09;84.19
25232;BME280;13176;51.140;6.290;2022-09-25T03:47:11;100634.56;;;15.53;84.00
25232;BME280;13176;51.140;6.290;2022-09-25T03:49:38;100728.47;;;16.00;84.16
25232;BME280;13176;51.140;6.290;2022-09-25T03:52:04;100766.09;;;16.26;83.71
25232;BME280;13176;51.140;6.290;2022-09-25T03:54:30;100747.13;;;16.18;84.17
25232;BME280;13176;51.140;6.290;2022-09-25T03:56:57;100755.84;;;16.19;83.99
25232;BME280;13176;51.140;6.290;2022-09-25T03:59:23;100749.09;;;16.12;83.92
25232;BME280;13176;51.140;6.290;2022-09-25T04:01:49;100778.44;;;16.26;83.91
25232;BME280;13176;51.140;6.290;2022-09-25T04:04:16;100767.78;;;16.29;83.53
25232;BME280;13176;51.140;6.290;2022-09-25T04:06:42;100739.81;;;16.02;83.42
25232;BME280;13176;51.140;6.290;2022-09-25T04:09:09;100721.38;;;16.02;83.74
25232;BME280;13176;51.140;6.290;2022-09-25T04:11:35;100762.94;;;16.17;83.65
25232;BME280;13176;51.140;6.290;2022-09-25T04:14:03;100744.13;;;16.03;83.42
25232;BME280;13176;51.140;6.290;2022-09-25T04:16:30;100743.22;;;16.04;83.75
25232;BME280;13176;51.140;6.290;2022-09-25T04:18:57;100711.38;;;15.87;83.30
25232;BME280;13176;51.140;6.290;2022-09-25T04:21:23;100743.22;;;16.04;83.35
25232;BME280;13176;51.140;6.290;2022-09-25T04:23:50;100769.94;;;16.18;83.29
25232;BME280;13176;51.140;6.290;2022-09-25T04:26:35;100700.13;;;15.84;83.36
25232;BME280;13176;51.140;6.290;2022-09-25T04:29:01;100774.56;;;16.11;83.25
25232;BME280;13176;51.140;6.290;2022-09-25T04:31:30;100739.25;;;15.93;83.30
25232;BME280;13176;51.140;6.290;2022-09-25T04:33:56;100756.38;;;16.04;83.15
25232;BME280;13176;51.140;6.290;2022-09-25T04:36:23;100747.81;;;15.99;82.94
25232;BME280;13176;51.140;6.290;2022-09-25T04:38:49;100691.84;;;15.70;83.08
25232;BME280;13176;51.140;6.290;2022-09-25T04:41:16;100768.78;;;16.02;82.84
25232;BME280;13176;51.140;6.290;2022-09-25T04:43:44;100753.19;;;15.96;83.33
25232;BME280;13176;51.140;6.290;2022-09-25T04:46:11;100704.47;;;15.60;83.06
25232;BME280;13176;51.140;6.290;2022-09-25T04:48:45;100758.75;;;15.87;83.56
25232;BME280;13176;51.140;6.290;2022-09-25T04:51:12;100670.88;;;15.42;83.08
25232;BME280;13176;51.140;6.290;2022-09-25T04:53:38;100628.00;;;15.14;82.92
25232;BME280;13176;51.140;6.290;2022-09-25T04:56:06;100679.47;;;15.47;83.40
25232;BME280;13176;51.140;6.290;2022-09-25T04:58:46;100765.53;;;15.94;83.35
25232;BME280;13176;51.140;6.290;2022-09-25T05:01:14;100732.00;;;15.75;83.31
25232;BME280;13176;51.140;6.290;2022-09-25T05:03:41;100720.63;;;15.48;82.94
25232;BME280;13176;51.140;6.290;2022-09-25T05:06:08;100745.09;;;15.76;83.31
25232;BME280;13176;51.140;6.290;2022-09-25T05:08:34;100760.59;;;15.85;83.15
25232;BME280;13176;51.140;6.290;2022-09-25T05:11:01;100775.97;;;15.97;83.03
25232;BME280;13176;51.140;6.290;2022-09-25T05:13:28;100676.34;;;15.36;83.35
25232;BME280;13176;51.140;6.290;2022-09-25T05:15:55;100747.63;;;15.79;83.07
25232;BME280;13176;51.140;6.290;2022-09-25T05:18:22;100693.44;;;15.49;82.78
25232;BME280;13176;51.140;6.290;2022-09-25T05:20:49;100775.16;;;15.95;82.49
25232;BME280;13176;51.140;6.290;2022-09-25T05:23:16;100776.06;;;15.94;82.79
25232;BME280;13176;51.140;6.290;2022-09-25T05:25:42;100765.84;;;15.85;82.58
25232;BME280;13176;51.140;6.290;2022-09-25T05:28:09;100724.69;;;15.58;82.41
25232;BME280;13176;51.140;6.290;2022-09-25T05:30:37;100774.44;;;15.90;82.11
25232;BME280;13176;51.140;6.290;2022-09-25T05:33:04;100765.75;;;15.88;82.19
25232;BME280;13176;51.140;6.290;2022-09-25T05:35:31;100785.72;;;15.94;82.22
25232;BME280;13176;51.140;6.290;2022-09-25T05:37:58;100747.13;;;15.68;82.76
25232;BME280;13176;51.140;6.290;2022-09-25T05:40:25;100783.91;;;15.96;82.40
25232;BME280;13176;51.140;6.290;2022-09-25T05:42:52;100766.66;;;15.87;81.98
25232;BME280;13176;51.140;6.290;2022-09-25T05:45:21;100766.16;;;15.76;81.50
25232;BME280;13176;51.140;6.290;2022-09-25T05:47:58;100634.16;;;14.87;82.38
25232;BME280;13176;51.140;6.290;2022-09-25T05:50:26;100775.06;;;15.72;82.27
25232;BME280;13176;51.140;6.290;2022-09-25T05:53:00;100788.28;;;15.71;82.63
25232;BME280;13176;51.140;6.290;2022-09-25T05:55:28;100773.56;;;15.65;82.90
25232;BME280;13176;51.140;6.290;2022-09-25T05:58:02;100738.41;;;15.42;82.45
25232;BME280;13176;51.140;6.290;2022-09-25T06:00:29;100782.03;;;15.73;82.67
25232;BME280;13176;51.140;6.290;2022-09-25T06:02:59;100732.97;;;15.46;82.27
25232;BME280;13176;51.140;6.290;2022-09-25T06:05:26;100746.13;;;15.46;82.31
25232;BME280;13176;51.140;6.290;2022-09-25T06:07:53;100761.00;;;15.47;82.43
25232;BME280;13176;51.140;6.290;2022-09-25T06:10:20;100791.16;;;15.63;82.40
25232;BME280;13176;51.140;6.290;2022-09-25T06:12:47;100661.00;;;14.70;81.87
25232;BME280;13176;51.140;6.290;2022-09-25T06:15:13;100772.44;;;15.46;82.44
25232;BME280;13176;51.140;6.290;2022-09-25T06:17:40;100758.97;;;15.29;82.17
25232;BME280;13176;51.140;6.290;2022-09-25T06:20:06;100779.69;;;15.38;81.92
25232;BME280;13176;51.140;6.290;2022-09-25T06:22:40;100796.03;;;15.48;81.88
25232;BME280;13176;51.140;6.290;2022-09-25T06:25:07;100787.91;;;15.29;82.30
25232;BME280;13176;51.140;6.290;2022-09-25T06:27:34;100797.38;;;15.33;82.01
25232;BME280;13176;51.140;6.290;2022-09-25T06:30:00;100783.78;;;15.19;82.42
25232;BME280;13176;51.140;6.290;2022-09-25T06:32:27;100785.69;;;15.14;81.93
25232;BME280;13176;51.140;6.290;2022-09-25T06:34:53;100775.19;;;15.14;82.54
25232;BME280;13176;51.140;6.290;2022-09-25T06:37:19;100711.63;;;14.75;81.81
25232;BME280;13176;51.140;6.290;2022-09-25T06:39:46;100758.16;;;14.98;81.63
25232;BME280;13176;51.140;6.290;2022-09-25T06:42:12;100806.63;;;15.17;82.31
25232;BME280;13176;51.140;6.290;2022-09-25T06:44:38;100621.75;;;14.07;82.02
25232;BME280;13176;51.140;6.290;2022-09-25T06:47:05;100776.53;;;15.00;82.21
25232;BME280;13176;51.140;6.290;2022-09-25T06:49:31;100804.00;;;15.17;82.30
25232;BME280;13176;51.140;6.290;2022-09-25T06:51:58;100698.13;;;14.58;81.71
25232;BME280;13176;51.140;6.290;2022-09-25T06:54:29;100786.88;;;15.04;81.88
25232;BME280;13176;51.140;6.290;2022-09-25T06:56:56;100811.72;;;15.23;82.30
25232;BME280;13176;51.140;6.290;2022-09-25T06:59:22;100792.59;;;15.18;82.07
25232;BME280;13176;51.140;6.290;2022-09-25T07:01:50;100788.97;;;15.22;82.34
25232;BME280;13176;51.140;6.290;2022-09-25T07:04:17;100778.75;;;15.12;81.48
25232;BME280;13176;51.140;6.290;2022-09-25T07:06:43;100683.50;;;14.51;81.20
25232;BME280;13176;51.140;6.290;2022-09-25T07:09:10;100705.72;;;14.68;81.78
25232;BME280;13176;51.140;6.290;2022-09-25T07:11:37;100823.50;;;15.39;81.50
25232;BME280;13176;51.140;6.290;2022-09-25T07:14:04;100834.00;;;15.39;81.81
25232;BME280;13176;51.140;6.290;2022-09-25T07:16:30;100800.31;;;15.23;81.87
25232;BME280;13176;51.140;6.290;2022-09-25T07:18:59;100820.03;;;15.39;81.43
25232;BME280;13176;51.140;6.290;2022-09-25T07:21:26;100811.44;;;15.32;81.28
25232;BME280;13176;51.140;6.290;2022-09-25T07:23:55;100811.25;;;15.38;81.73
25232;BME280;13176;51.140;6.290;2022-09-25T07:26:26;100831.91;;;15.50;81.05
25232;BME280;13176;51.140;6.290;2022-09-25T07:28:58;100833.44;;;15.57;81.33
25232;BME280;13176;51.140;6.290;2022-09-25T07:31:30;100826.19;;;15.65;81.58
25232;BME280;13176;51.140;6.290;2022-09-25T07:33:58;100790.09;;;15.43;80.67
25232;BME280;13176;51.140;6.290;2022-09-25T07:36:27;100831.22;;;15.71;80.83
25232;BME280;13176;51.140;6.290;2022-09-25T07:38:54;100839.91;;;15.73;81.00
25232;BME280;13176;51.140;6.290;2022-09-25T07:41:21;100779.31;;;15.50;80.71
25232;BME280;13176;51.140;6.290;2022-09-25T07:43:53;100839.25;;;15.94;80.51
25232;BME280;13176;51.140;6.290;2022-09-25T07:46:42;100837.84;;;16.08;80.03
25232;BME280;13176;51.140;6.290;2022-09-25T07:49:09;100820.47;;;16.03;79.81
25232;BME280;13176;51.140;6.290;2022-09-25T07:51:36;100807.31;;;16.03;79.21
25232;BME280;13176;51.140;6.290;2022-09-25T07:54:03;100803.03;;;16.00;77.92
25232;BME280;13176;51.140;6.290;2022-09-25T07:56:29;100819.16;;;16.16;78.29
25232;BME280;13176;51.140;6.290;2022-09-25T07:58:56;100787.31;;;15.99;77.01
25232;BME280;13176;51.140;6.290;2022-09-25T08:01:22;100751.88;;;15.83;77.29
25232;BME280;13176;51.140;6.290;2022-09-25T08:03:49;100746.91;;;15.74;76.60
25232;BME280;13176;51.140;6.290;2022-09-25T08:06:15;100790.78;;;16.24;76.46
25232;BME280;13176;51.140;6.290;2022-09-25T08:08:42;100822.69;;;16.41;76.32
25232;BME280;13176;51.140;6.290;2022-09-25T08:11:14;100829.53;;;16.46;76.53
25232;BME280;13176;51.140;6.290;2022-09-25T08:13:42;100810.97;;;16.49;77.04
25232;BME280;13176;51.140;6.290;2022-09-25T08:16:11;100759.38;;;16.19;76.06
25232;BME280;13176;51.140;6.290;2022-09-25T08:18:39;100767.63;;;16.35;76.52
25232;BME280;13176;51.140;6.290;2022-09-25T08:21:08;100830.88;;;16.81;75.61
25232;BME280;13176;51.140;6.290;2022-09-25T08:23:35;100828.91;;;16.86;75.61
25232;BME280;13176;51.140;6.290;2022-09-25T08:26:01;100733.25;;;16.38;75.08
25232;BME280;13176;51.140;6.290;2022-09-25T08:28:28;100809.56;;;16.87;74.07
25232;BME280;13176;51.140;6.290;2022-09-25T08:30:58;100824.69;;;17.05;74.06
25232;BME280;13176;51.140;6.290;2022-09-25T08:33:25;100791.78;;;16.92;73.71
25232;BME280;13176;51.140;6.290;2022-09-25T08:36:00;100827.03;;;17.12;73.31
25232;BME280;13176;51.140;6.290;2022-09-25T08:38:28;100789.13;;;16.93;72.49
25232;BME280;13176;51.140;6.290;2022-09-25T08:41:00;100774.31;;;16.89;72.55
25232;BME280;13176;51.140;6.290;2022-09-25T08:43:31;100808.50;;;17.13;71.16
25232;BME280;13176;51.140;6.290;2022-09-25T08:46:00;100818.09;;;17.16;71.52
25232;BME280;13176;51.140;6.290;2022-09-25T08:48:55;100829.78;;;17.32;71.41
25232;BME280;13176;51.140;6.290;2022-09-25T08:51:37;100817.03;;;17.43;70.53
25232;BME280;13176;51.140;6.290;2022-09-25T08:54:06;100828.19;;;17.49;71.23
25232;BME280;13176;51.140;6.290;2022-09-25T08:56:34;100711.19;;;16.86;70.64
25232;BME280;13176;51.140;6.290;2022-09-25T09:01:45;100813.59;;;17.62;69.96
25232;BME280;13176;51.140;6.290;2022-09-25T09:04:20;100840.47;;;17.72;69.18
25232;BME280;13176;51.140;6.290;2022-09-25T09:06:54;100834.50;;;17.88;69.33
25232;BME280;13176;51.140;6.290;2022-09-25T09:09:46;100778.38;;;17.63;69.15
25232;BME280;13176;51.140;6.290;2022-09-25T09:12:17;100832.50;;;18.15;68.34
25232;BME280;13176;51.140;6.290;2022-09-25T09:14:48;100837.44;;;18.22;67.83
25232;BME280;13176;51.140;6.290;2022-09-25T09:17:19;100810.97;;;18.24;66.65
25232;BME280;13176;51.140;6.290;2022-09-25T09:19:53;100805.66;;;18.25;66.87
25232;BME280;13176;51.140;6.290;2022-09-25T09:22:32;100834.59;;;18.48;67.17
25232;BME280;13176;51.140;6.290;2022-09-25T09:28:11;100830.50;;;18.79;67.73
25232;BME280;13176;51.140;6.290;2022-09-25T09:31:02;100834.94;;;18.79;65.64
25232;BME280;13176;51.140;6.290;2022-09-25T09:36:50;100821.25;;;18.31;62.23
25232;BME280;13176;51.140;6.290;2022-09-25T09:39:32;100827.84;;;18.41;62.53
25232;BME280;13176;51.140;6.290;2022-09-25T09:45:07;100824.66;;;18.33;62.73
25232;BME280;13176;51.140;6.290;2022-09-25T09:50:52;100827.97;;;18.38;61.29
25232;BME280;13176;51.140;6.290;2022-09-25T09:56:17;100826.78;;;18.45;61.80
25232;BME280;13176;51.140;6.290;2022-09-25T09:59:08;100830.47;;;18.61;61.55
25232;BME280;13176;51.140;6.290;2022-09-25T10:01:37;100800.97;;;18.32;61.29
25232;BME280;13176;51.140;6.290;2022-09-25T10:04:23;100775.91;;;18.00;61.08
25232;BME280;13176;51.140;6.290;2022-09-25T10:07:14;100789.66;;;18.08;61.41
25232;BME280;13176;51.140;6.290;2022-09-25T10:09:43;100808.03;;;18.31;62.10
25232;BME280;13176;51.140;6.290;2022-09-25T10:12:29;100811.59;;;18.50;60.92
25232;BME280;13176;51.140;6.290;2022-09-25T10:15:01;100807.06;;;18.72;60.74
25232;BME280;13176;51.140;6.290;2022-09-25T10:17:29;100829.97;;;19.10;61.36
25232;BME280;13176;51.140;6.290;2022-09-25T10:19:59;100795.66;;;19.08;59.21
25232;BME280;13176;51.140;6.290;2022-09-25T10:22:29;100804.72;;;19.03;58.89
25232;BME280;13176;51.140;6.290;2022-09-25T10:24:59;100810.09;;;18.83;58.52
25232;BME280;13176;51.140;6.290;2022-09-25T10:27:34;100818.81;;;18.85;59.10
25232;BME280;13176;51.140;6.290;2022-09-25T10:33:06;100793.22;;;19.04;59.34
25232;BME280;13176;51.140;6.290;2022-09-25T10:38:59;100797.00;;;19.70;58.10
25232;BME280;13176;51.140;6.290;2022-09-25T10:43:33;100754.81;;;19.84;57.58
25232;BME280;13176;51.140;6.290;2022-09-25T10:46:13;100796.59;;;20.13;55.68
25232;BME280;13176;51.140;6.290;2022-09-25T10:48:41;100776.47;;;19.92;55.99
25232;BME280;13176;51.140;6.290;2022-09-25T10:51:26;100777.13;;;19.97;55.65
25232;BME280;13176;51.140;6.290;2022-09-25T10:54:11;100797.72;;;20.26;54.85
25232;BME280;13176;51.140;6.290;2022-09-25T10:56:38;100799.41;;;20.27;52.61
25232;BME280;13176;51.140;6.290;2022-09-25T10:59:15;100799.72;;;20.04;53.50
25232;BME280;13176;51.140;6.290;2022-09-25T11:01:43;100780.66;;;19.79;54.01
25232;BME280;13176;51.140;6.290;2022-09-25T11:04:20;100794.38;;;20.55;53.17
25232;BME280;13176;51.140;6.290;2022-09-25T11:06:50;100796.06;;;21.83;49.48
25232;BME280;13176;51.140;6.290;2022-09-25T11:09:20;100769.47;;;21.83;50.28
25232;BME280;13176;51.140;6.290;2022-09-25T11:11:48;100787.34;;;21.65;50.03
25232;BME280;13176;51.140;6.290;2022-09-25T11:14:27;100769.78;;;21.32;49.48
25232;BME280;13176;51.140;6.290;2022-09-25T11:16:59;100794.09;;;21.09;49.62
25232;BME280;13176;51.140;6.290;2022-09-25T11:19:29;100743.47;;;20.81;52.46
25232;BME280;13176;51.140;6.290;2022-09-25T11:24:45;100783.03;;;21.01;49.81
25232;BME280;13176;51.140;6.290;2022-09-25T11:30:07;100784.06;;;20.66;50.57
25232;BME280;13176;51.140;6.290;2022-09-25T11:35:29;100778.22;;;20.60;51.81
25232;BME280;13176;51.140;6.290;2022-09-25T11:41:15;100748.91;;;20.13;52.38
25232;BME280;13176;51.140;6.290;2022-09-25T11:44:00;100786.31;;;20.07;52.18
25232;BME280;13176;51.140;6.290;2022-09-25T11:49:18;100783.78;;;19.70;53.90
25232;BME280;13176;51.140;6.290;2022-09-25T11:55:12;100773.97;;;20.40;52.25
25232;BME280;13176;51.140;6.290;2022-09-25T12:00:20;100772.69;;;20.64;50.39
25232;BME280;13176;51.140;6.290;2022-09-25T12:03:15;100772.59;;;20.82;49.70
25232;BME280;13176;51.140;6.290;2022-09-25T12:11:38;100755.38;;;21.36;50.24
25232;BME280;13176;51.140;6.290;2022-09-25T12:17:06;100714.38;;;20.95;49.49
25232;BME280;13176;51.140;6.290;2022-09-25T12:28:09;100742.69;;;20.47;50.48
25232;BME280;13176;51.140;6.290;2022-09-25T12:30:50;100713.03;;;20.23;51.19
25232;BME280;13176;51.140;6.290;2022-09-25T12:36:07;100726.16;;;20.74;51.07
25232;BME280;13176;51.140;6.290;2022-09-25T12:38:49;100718.97;;;21.38;49.75
25232;BME280;13176;51.140;6.290;2022-09-25T12:44:17;100723.88;;;22.18;45.32
25232;BME280;13176;51.140;6.290;2022-09-25T12:46:56;100691.47;;;21.84;45.82
25232;BME280;13176;51.140;6.290;2022-09-25T12:52:25;100682.34;;;21.88;46.06
25232;BME280;13176;51.140;6.290;2022-09-25T12:55:18;100715.31;;;22.42;44.40
25232;BME280;13176;51.140;6.290;2022-09-25T12:58:18;100685.47;;;23.06;41.65
25232;BME280;13176;51.140;6.290;2022-09-25T13:01:00;100685.78;;;23.66;40.62
25232;BME280;13176;51.140;6.290;2022-09-25T13:04:08;100705.53;;;24.52;39.67
25232;BME280;13176;51.140;6.290;2022-09-25T13:06:45;100679.72;;;24.89;38.84
25232;BME280;13176;51.140;6.290;2022-09-25T13:09:43;100693.03;;;24.65;37.49
25232;BME280;13176;51.140;6.290;2022-09-25T13:12:33;100697.41;;;23.92;40.77
25232;BME280;13176;51.140;6.290;2022-09-25T13:15:09;100701.16;;;23.10;42.88
25232;BME280;13176;51.140;6.290;2022-09-25T13:17:39;100677.25;;;22.26;42.61
25232;BME280;13176;51.140;6.290;2022-09-25T13:22:55;100673.94;;;21.66;44.94
25232;BME280;13176;51.140;6.290;2022-09-25T13:25:23;100685.16;;;21.71;44.82
25232;BME280;13176;51.140;6.290;2022-09-25T13:27:50;100668.00;;;21.47;43.10
25232;BME280;13176;51.140;6.290;2022-09-25T13:30:25;100662.97;;;21.72;43.17
25232;BME280;13176;51.140;6.290;2022-09-25T13:32:54;100683.50;;;21.97;44.59
25232;BME280;13176;51.140;6.290;2022-09-25T13:35:22;100678.22;;;21.53;41.94
25232;BME280;13176;51.140;6.290;2022-09-25T13:37:51;100677.53;;;21.20;43.10
25232;BME280;13176;51.140;6.290;2022-09-25T13:40:23;100654.81;;;20.85;43.21
25232;BME280;13176;51.140;6.290;2022-09-25T13:43:17;100677.53;;;20.73;44.05
25232;BME280;13176;51.140;6.290;2022-09-25T13:45:48;100675.16;;;20.54;44.48
25232;BME280;13176;51.140;6.290;2022-09-25T13:53:57;100646.81;;;20.06;47.02
25232;BME280;13176;51.140;6.290;2022-09-25T14:01:39;100652.88;;;20.41;46.14
25232;BME280;13176;51.140;6.290;2022-09-25T14:04:17;100657.19;;;20.74;46.19
25232;BME280;13176;51.140;6.290;2022-09-25T14:06:47;100675.34;;;20.97;45.82
25232;BME280;13176;51.140;6.290;2022-09-25T14:09:20;100642.81;;;21.09;45.79
25232;BME280;13176;51.140;6.290;2022-09-25T14:12:00;100650.81;;;21.23;44.84
25232;BME280;13176;51.140;6.290;2022-09-25T14:14:33;100659.81;;;21.50;44.45
25232;BME280;13176;51.140;6.290;2022-09-25T14:17:02;100626.16;;;21.21;43.39
25232;BME280;13176;51.140;6.290;2022-09-25T14:19:31;100644.09;;;21.47;44.65
25232;BME280;13176;51.140;6.290;2022-09-25T14:22:03;100643.69;;;21.53;43.39
25232;BME280;13176;51.140;6.290;2022-09-25T14:24:30;100638.94;;;21.73;45.33
25232;BME280;13176;51.140;6.290;2022-09-25T14:26:59;100651.50;;;21.85;44.09
25232;BME280;13176;51.140;6.290;2022-09-25T14:29:36;100632.91;;;21.99;43.50
25232;BME280;13176;51.140;6.290;2022-09-25T14:32:16;100634.72;;;22.12;44.23
25232;BME280;13176;51.140;6.290;2022-09-25T14:38:25;100619.31;;;21.89;43.33
25232;BME280;13176;51.140;6.290;2022-09-25T14:41:33;100643.41;;;21.87;42.14
25232;BME280;13176;51.140;6.290;2022-09-25T14:46:52;100639.97;;;21.41;44.17
25232;BME280;13176;51.140;6.290;2022-09-25T14:49:27;100599.94;;;21.01;44.89
25232;BME280;13176;51.140;6.290;2022-09-25T14:51:59;100579.66;;;20.69;45.64
25232;BME280;13176;51.140;6.290;2022-09-25T14:54:31;100636.06;;;20.88;45.72
25232;BME280;13176;51.140;6.290;2022-09-25T14:57:01;100641.63;;;20.68;44.99
25232;BME280;13176;51.140;6.290;2022-09-25T14:59:34;100614.38;;;20.49;45.88
25232;BME280;13176;51.140;6.290;2022-09-25T15:02:17;100573.34;;;20.25;46.01